sensor_id;sensor_type;location;lat;lon;timestamp;temperature;humidity
57030;DHT22;42920;45.306;20.448;2023-10-19T00:00:57;308.00;2304.00
57030;DHT22;42920;45.306;20.448;2023-10-19T00:03:24;308.00;2304.00
57030;DHT22;42920;45.306;20.448;2023-10-19T00:05:50;308.00;2304.00
57030;DHT22;42920;45.306;20.448;2023-10-19T00:08:16;308.10;2304.00
57030;DHT22;42920;45.306;20.448;2023-10-19T00:10:48;308.10;2304.00
57030;DHT22;42920;45.306;20.448;2023-10-19T00:13:21;308.10;2304.00
57030;DHT22;42920;45.306;20.448;2023-10-19T00:15:48;332.80;2329.60
57030;DHT22;42920;45.306;20.448;2023-10-19T00:18:15;332.80;2329.60
57030;DHT22;42920;45.306;20.448;2023-10-19T00:20:46;332.90;2329.60
57030;DHT22;42920;45.306;20.448;2023-10-19T00:23:21;332.90;2329.60
57030;DHT22;42920;45.306;20.448;2023-10-19T00:26:01;332.90;2329.60
57030;DHT22;42920;45.306;20.448;2023-10-19T00:28:43;332.90;2329.60
57030;DHT22;42920;45.306;20.448;2023-10-19T00:31:14;332.90;2329.60
57030;DHT22;42920;45.306;20.448;2023-10-19T00:33:40;332.90;2329.60
57030;DHT22;42920;45.306;20.448;2023-10-19T00:36:07;332.90;2329.60
57030;DHT22;42920;45.306;20.448;2023-10-19T00:38:37;332.90;2329.60
57030;DHT22;42920;45.306;20.448;2023-10-19T00:41:04;332.90;2329.60
57030;DHT22;42920;45.306;20.448;2023-10-19T00:43:33;332.90;2329.60
57030;DHT22;42920;45.306;20.448;2023-10-19T00:46:08;332.90;2329.60
57030;DHT22;42920;45.306;20.448;2023-10-19T00:48:53;332.90;2329.60
57030;DHT22;42920;45.306;20.448;2023-10-19T00:51:23;332.90;2329.60
57030;DHT22;42920;45.306;20.448;2023-10-19T00:54:04;332.90;2329.60
57030;DHT22;42920;45.306;20.448;2023-10-19T00:56:39;332.90;2329.60
57030;DHT22;42920;45.306;20.448;2023-10-19T00:59:10;332.90;2329.60
57030;DHT22;42920;45.306;20.448;2023-10-19T01:01:49;332.90;2329.60
57030;DHT22;42920;45.306;20.448;2023-10-19T01:04:15;332.90;2329.60
57030;DHT22;42920;45.306;20.448;2023-10-19T01:06:48;333.00;2329.60
57030;DHT22;42920;45.306;20.448;2023-10-19T01:09:29;333.10;2329.60
57030;DHT22;42920;45.306;20.448;2023-10-19T01:12:05;333.10;2329.60
57030;DHT22;42920;45.306;20.448;2023-10-19T01:15:12;333.10;2329.60
57030;DHT22;42920;45.306;20.448;2023-10-19T01:17:40;333.10;2329.60
57030;DHT22;42920;45.306;20.448;2023-10-19T01:20:08;333.10;2329.60
57030;DHT22;42920;45.306;20.448;2023-10-19T01:22:56;333.10;2329.60
57030;DHT22;42920;45.306;20.448;2023-10-19T01:25:49;333.10;2329.60
57030;DHT22;42920;45.306;20.448;2023-10-19T01:28:16;333.20;2329.60
57030;DHT22;42920;45.306;20.448;2023-10-19T01:30:45;333.20;2329.60
57030;DHT22;42920;45.306;20.448;2023-10-19T01:33:11;333.20;2329.60
57030;DHT22;42920;45.306;20.448;2023-10-19T01:35:42;333.20;2329.60
57030;DHT22;42920;45.306;20.448;2023-10-19T01:38:27;333.20;2329.60
57030;DHT22;42920;45.306;20.448;2023-10-19T01:40:57;333.30;2329.60
57030;DHT22;42920;45.306;20.448;2023-10-19T01:43:25;333.30;2329.60
57030;DHT22;42920;45.306;20.448;2023-10-19T01:45:56;333.30;2329.60
57030;DHT22;42920;45.306;20.448;2023-10-19T01:48:22;333.30;2329.60
57030;DHT22;42920;45.306;20.448;2023-10-19T01:50:53;333.30;2329.60
57030;DHT22;42920;45.306;20.448;2023-10-19T01:53:19;333.40;2329.60
57030;DHT22;42920;45.306;20.448;2023-10-19T01:55:50;333.40;2329.60
57030;DHT22;42920;45.306;20.448;2023-10-19T01:58:26;333.40;2329.60
57030;DHT22;42920;45.306;20.448;2023-10-19T02:00:54;333.30;2329.60
57030;DHT22;42920;45.306;20.448;2023-10-19T02:03:26;333.30;2329.60
57030;DHT22;42920;45.306;20.448;2023-10-19T02:06:00;333.30;2329.60
57030;DHT22;42920;45.306;20.448;2023-10-19T02:08:35;333.30;2329.60
57030;DHT22;42920;45.306;20.448;2023-10-19T02:11:05;333.30;2329.60
57030;DHT22;42920;45.306;20.448;2023-10-19T02:13:39;333.30;2329.60
57030;DHT22;42920;45.306;20.448;2023-10-19T02:16:05;333.30;2329.60
57030;DHT22;42920;45.306;20.448;2023-10-19T02:18:32;333.40;2329.60
57030;DHT22;42920;45.306;20.448;2023-10-19T02:21:01;333.40;2329.60
57030;DHT22;42920;45.306;20.448;2023-10-19T02:23:32;333.40;2329.60
57030;DHT22;42920;45.306;20.448;2023-10-19T02:26:01;333.40;2329.60
57030;DHT22;42920;45.306;20.448;2023-10-19T02:28:29;333.40;2329.60
57030;DHT22;42920;45.306;20.448;2023-10-19T02:30:58;333.40;2329.60
57030;DHT22;42920;45.306;20.448;2023-10-19T02:33:36;333.30;2329.60
57030;DHT22;42920;45.306;20.448;2023-10-19T02:36:02;333.30;2329.60
57030;DHT22;42920;45.306;20.448;2023-10-19T02:38:29;333.40;2329.60
57030;DHT22;42920;45.306;20.448;2023-10-19T02:40:55;333.30;2329.60
57030;DHT22;42920;45.306;20.448;2023-10-19T02:43:21;333.30;2329.60
57030;DHT22;42920;45.306;20.448;2023-10-19T02:45:49;333.20;2329.60
57030;DHT22;42920;45.306;20.448;2023-10-19T02:48:16;333.30;2329.60
57030;DHT22;42920;45.306;20.448;2023-10-19T02:50:42;333.30;2329.60
57030;DHT22;42920;45.306;20.448;2023-10-19T02:53:08;333.30;2329.60
57030;DHT22;42920;45.306;20.448;2023-10-19T02:55:38;333.20;2329.60
57030;DHT22;42920;45.306;20.448;2023-10-19T02:58:06;333.20;2329.60
57030;DHT22;42920;45.306;20.448;2023-10-19T03:00:31;333.20;2329.60
57030;DHT22;42920;45.306;20.448;2023-10-19T03:03:02;333.20;2329.60
57030;DHT22;42920;45.306;20.448;2023-10-19T03:05:30;333.10;2329.60
57030;DHT22;42920;45.306;20.448;2023-10-19T03:07:56;333.10;2329.60
57030;DHT22;42920;45.306;20.448;2023-10-19T03:10:22;333.10;2329.60
57030;DHT22;42920;45.306;20.448;2023-10-19T03:12:52;333.00;2329.60
57030;DHT22;42920;45.306;20.448;2023-10-19T03:15:18;333.00;2329.60
57030;DHT22;42920;45.306;20.448;2023-10-19T03:17:47;332.90;2329.60
57030;DHT22;42920;45.306;20.448;2023-10-19T03:20:14;332.90;2329.60
57030;DHT22;42920;45.306;20.448;2023-10-19T03:22:42;332.90;2329.60
57030;DHT22;42920;45.306;20.448;2023-10-19T03:25:09;332.90;2329.60
57030;DHT22;42920;45.306;20.448;2023-10-19T03:27:54;332.80;2329.60
57030;DHT22;42920;45.306;20.448;2023-10-19T03:30:21;332.80;2329.60
57030;DHT22;42920;45.306;20.448;2023-10-19T03:32:50;308.10;2304.00
57030;DHT22;42920;45.306;20.448;2023-10-19T03:35:16;308.10;2304.00
57030;DHT22;42920;45.306;20.448;2023-10-19T03:37:42;308.10;2304.00
57030;DHT22;42920;45.306;20.448;2023-10-19T03:40:08;308.00;2304.00
57030;DHT22;42920;45.306;20.448;2023-10-19T03:42:37;308.00;2304.00
57030;DHT22;42920;45.306;20.448;2023-10-19T03:45:11;308.00;2304.00
57030;DHT22;42920;45.306;20.448;2023-10-19T03:47:40;308.00;2304.00
57030;DHT22;42920;45.306;20.448;2023-10-19T03:50:09;308.00;2304.00
57030;DHT22;42920;45.306;20.448;2023-10-19T03:52:40;308.00;2304.00
57030;DHT22;42920;45.306;20.448;2023-10-19T03:55:06;308.00;2304.00
57030;DHT22;42920;45.306;20.448;2023-10-19T03:57:37;308.00;2304.00
57030;DHT22;42920;45.306;20.448;2023-10-19T04:00:08;307.90;2304.00
57030;DHT22;42920;45.306;20.448;2023-10-19T04:02:41;307.90;2304.00
57030;DHT22;42920;45.306;20.448;2023-10-19T04:05:08;308.00;2304.00
57030;DHT22;42920;45.306;20.448;2023-10-19T04:07:40;308.00;2304.00
57030;DHT22;42920;45.306;20.448;2023-10-19T04:10:07;307.90;2304.00
57030;DHT22;42920;45.306;20.448;2023-10-19T04:12:40;307.90;2304.00
57030;DHT22;42920;45.306;20.448;2023-10-19T04:15:10;307.90;2304.00
57030;DHT22;42920;45.306;20.448;2023-10-19T04:17:42;308.00;2304.00
57030;DHT22;42920;45.306;20.448;2023-10-19T04:20:09;307.90;2304.00
57030;DHT22;42920;45.306;20.448;2023-10-19T04:22:45;308.00;2304.00
57030;DHT22;42920;45.306;20.448;2023-10-19T04:25:12;308.00;2304.00
57030;DHT22;42920;45.306;20.448;2023-10-19T04:27:39;307.80;2099.20
57030;DHT22;42920;45.306;20.448;2023-10-19T04:30:08;307.80;2304.00
57030;DHT22;42920;45.306;20.448;2023-10-19T04:32:45;307.80;2304.00
57030;DHT22;42920;45.306;20.448;2023-10-19T04:35:14;307.80;2304.00
57030;DHT22;42920;45.306;20.448;2023-10-19T04:37:40;307.80;2304.00
57030;DHT22;42920;45.306;20.448;2023-10-19T04:40:11;307.70;2304.00
57030;DHT22;42920;45.306;20.448;2023-10-19T04:42:38;307.80;2304.00
57030;DHT22;42920;45.306;20.448;2023-10-19T04:45:04;307.80;2304.00
57030;DHT22;42920;45.306;20.448;2023-10-19T04:47:34;307.80;2304.00
57030;DHT22;42920;45.306;20.448;2023-10-19T04:50:04;307.80;2304.00
57030;DHT22;42920;45.306;20.448;2023-10-19T04:52:31;307.80;2304.00
57030;DHT22;42920;45.306;20.448;2023-10-19T04:54:58;332.90;2329.60
57030;DHT22;42920;45.306;20.448;2023-10-19T04:57:24;307.90;2304.00
57030;DHT22;42920;45.306;20.448;2023-10-19T04:59:49;307.80;2304.00
57030;DHT22;42920;45.306;20.448;2023-10-19T05:02:15;307.80;2304.00
57030;DHT22;42920;45.306;20.448;2023-10-19T05:04:42;307.80;2304.00
57030;DHT22;42920;45.306;20.448;2023-10-19T05:07:08;307.80;2304.00
57030;DHT22;42920;45.306;20.448;2023-10-19T05:09:38;307.80;2304.00
57030;DHT22;42920;45.306;20.448;2023-10-19T05:12:07;307.80;2304.00
57030;DHT22;42920;45.306;20.448;2023-10-19T05:14:37;307.80;2304.00
57030;DHT22;42920;45.306;20.448;2023-10-19T05:17:03;307.80;2304.00
57030;DHT22;42920;45.306;20.448;2023-10-19T05:19:38;307.80;2304.00
57030;DHT22;42920;45.306;20.448;2023-10-19T05:22:07;307.80;2304.00
57030;DHT22;42920;45.306;20.448;2023-10-19T05:24:33;307.90;2304.00
57030;DHT22;42920;45.306;20.448;2023-10-19T05:26:59;307.90;2304.00
57030;DHT22;42920;45.306;20.448;2023-10-19T05:29:25;308.00;2227.20
57030;DHT22;42920;45.306;20.448;2023-10-19T05:31:52;308.00;2099.20
57030;DHT22;42920;45.306;20.448;2023-10-19T05:34:24;308.10;2048.00
57030;DHT22;42920;45.306;20.448;2023-10-19T05:36:49;308.10;2304.00
57030;DHT22;42920;45.306;20.448;2023-10-19T05:39:16;308.10;2304.00
57030;DHT22;42920;45.306;20.448;2023-10-19T05:41:42;332.80;2329.60
57030;DHT22;42920;45.306;20.448;2023-10-19T05:44:08;332.80;2329.60
57030;DHT22;42920;45.306;20.448;2023-10-19T05:46:33;332.90;2329.60
57030;DHT22;42920;45.306;20.448;2023-10-19T05:48:59;332.90;2329.60
57030;DHT22;42920;45.306;20.448;2023-10-19T05:51:27;333.00;2329.60
57030;DHT22;42920;45.306;20.448;2023-10-19T05:53:52;333.00;2329.60
57030;DHT22;42920;45.306;20.448;2023-10-19T05:56:20;333.10;2329.60
57030;DHT22;42920;45.306;20.448;2023-10-19T05:58:46;333.10;2329.60
57030;DHT22;42920;45.306;20.448;2023-10-19T06:01:16;333.20;2329.60
57030;DHT22;42920;45.306;20.448;2023-10-19T06:03:43;333.20;2329.60
57030;DHT22;42920;45.306;20.448;2023-10-19T06:06:09;333.30;2329.60
57030;DHT22;42920;45.306;20.448;2023-10-19T06:08:35;333.30;2329.60
57030;DHT22;42920;45.306;20.448;2023-10-19T06:11:01;333.30;2329.60
57030;DHT22;42920;45.306;20.448;2023-10-19T06:13:28;333.30;2329.60
57030;DHT22;42920;45.306;20.448;2023-10-19T06:15:55;333.30;2329.60
57030;DHT22;42920;45.306;20.448;2023-10-19T06:18:20;333.40;2329.60
57030;DHT22;42920;45.306;20.448;2023-10-19T06:20:46;333.40;2329.60
57030;DHT22;42920;45.306;20.448;2023-10-19T06:23:13;333.40;2329.60
57030;DHT22;42920;45.306;20.448;2023-10-19T06:25:39;333.50;2329.60
57030;DHT22;42920;45.306;20.448;2023-10-19T06:28:08;333.50;2329.60
57030;DHT22;42920;45.306;20.448;2023-10-19T06:30:34;333.50;2329.60
57030;DHT22;42920;45.306;20.448;2023-10-19T06:33:00;333.50;2329.60
57030;DHT22;42920;45.306;20.448;2023-10-19T06:35:28;333.60;2329.60
57030;DHT22;42920;45.306;20.448;2023-10-19T06:37:54;333.60;2329.60
57030;DHT22;42920;45.306;20.448;2023-10-19T06:40:21;333.60;2329.60
57030;DHT22;42920;45.306;20.448;2023-10-19T06:42:48;333.70;2329.60
57030;DHT22;42920;45.306;20.448;2023-10-19T06:45:16;333.70;2329.60
57030;DHT22;42920;45.306;20.448;2023-10-19T06:47:47;333.70;2329.60
57030;DHT22;42920;45.306;20.448;2023-10-19T06:50:14;333.70;2329.60
57030;DHT22;42920;45.306;20.448;2023-10-19T06:52:44;333.70;2329.60
57030;DHT22;42920;45.306;20.448;2023-10-19T06:55:11;358.40;2329.60
57030;DHT22;42920;45.306;20.448;2023-10-19T06:57:46;358.40;2329.60
57030;DHT22;42920;45.306;20.448;2023-10-19T07:00:15;358.40;2329.60
57030;DHT22;42920;45.306;20.448;2023-10-19T07:02:51;358.40;2329.60
57030;DHT22;42920;45.306;20.448;2023-10-19T07:05:17;358.40;2329.60
57030;DHT22;42920;45.306;20.448;2023-10-19T07:07:45;358.40;2329.60
57030;DHT22;42920;45.306;20.448;2023-10-19T07:10:12;358.40;2329.60
57030;DHT22;42920;45.306;20.448;2023-10-19T07:12:43;358.40;2329.60
57030;DHT22;42920;45.306;20.448;2023-10-19T07:15:10;358.40;2329.60
57030;DHT22;42920;45.306;20.448;2023-10-19T07:17:43;358.40;2329.60
57030;DHT22;42920;45.306;20.448;2023-10-19T07:20:11;358.50;2329.60
57030;DHT22;42920;45.306;20.448;2023-10-19T07:23:02;358.50;2329.60
57030;DHT22;42920;45.306;20.448;2023-10-19T07:25:49;358.50;2329.60
57030;DHT22;42920;45.306;20.448;2023-10-19T07:28:41;358.50;2329.60
57030;DHT22;42920;45.306;20.448;2023-10-19T07:31:07;358.60;2329.60
57030;DHT22;42920;45.306;20.448;2023-10-19T07:33:38;358.70;2329.60
57030;DHT22;42920;45.306;20.448;2023-10-19T07:36:12;358.70;2329.60
57030;DHT22;42920;45.306;20.448;2023-10-19T07:38:40;358.70;2329.60
57030;DHT22;42920;45.306;20.448;2023-10-19T07:41:08;358.70;2329.60
57030;DHT22;42920;45.306;20.448;2023-10-19T07:43:35;358.80;2329.60
57030;DHT22;42920;45.306;20.448;2023-10-19T07:46:01;358.80;2329.60
57030;DHT22;42920;45.306;20.448;2023-10-19T07:48:27;358.80;2329.60
57030;DHT22;42920;45.306;20.448;2023-10-19T07:50:52;358.90;2329.60
57030;DHT22;42920;45.306;20.448;2023-10-19T07:53:21;359.00;2329.60
57030;DHT22;42920;45.306;20.448;2023-10-19T07:55:47;359.10;2329.60
57030;DHT22;42920;45.306;20.448;2023-10-19T07:58:13;359.20;2329.60
57030;DHT22;42920;45.306;20.448;2023-10-19T08:00:38;359.20;2329.60
57030;DHT22;42920;45.306;20.448;2023-10-19T08:03:05;384.00;2329.60
57030;DHT22;42920;45.306;20.448;2023-10-19T08:05:32;384.50;2329.60
57030;DHT22;42920;45.306;20.448;2023-10-19T08:07:59;384.90;2329.60
57030;DHT22;42920;45.306;20.448;2023-10-19T08:10:26;409.80;2355.20
57030;DHT22;42920;45.306;20.448;2023-10-19T08:12:55;409.80;2355.20
57030;DHT22;42920;45.306;20.448;2023-10-19T08:15:21;409.90;2355.20
57030;DHT22;42920;45.306;20.448;2023-10-19T08:17:49;410.20;2355.20
57030;DHT22;42920;45.306;20.448;2023-10-19T08:20:16;410.30;2355.20
57030;DHT22;42920;45.306;20.448;2023-10-19T08:22:43;410.20;2355.20
57030;DHT22;42920;45.306;20.448;2023-10-19T08:25:11;410.10;2355.20
57030;DHT22;42920;45.306;20.448;2023-10-19T08:27:41;410.40;2355.20
57030;DHT22;42920;45.306;20.448;2023-10-19T08:30:13;410.50;2355.20
57030;DHT22;42920;45.306;20.448;2023-10-19T08:32:42;410.50;2355.20
57030;DHT22;42920;45.306;20.448;2023-10-19T08:35:10;410.40;2355.20
57030;DHT22;42920;45.306;20.448;2023-10-19T08:37:40;410.50;2355.20
57030;DHT22;42920;45.306;20.448;2023-10-19T08:40:14;435.30;2355.20
57030;DHT22;42920;45.306;20.448;2023-10-19T08:42:45;435.30;2355.20
57030;DHT22;42920;45.306;20.448;2023-10-19T08:45:11;435.40;2355.20
57030;DHT22;42920;45.306;20.448;2023-10-19T08:47:57;435.60;2355.20
57030;DHT22;42920;45.306;20.448;2023-10-19T08:50:31;435.70;2355.20
57030;DHT22;42920;45.306;20.448;2023-10-19T08:52:59;435.70;2355.20
57030;DHT22;42920;45.306;20.448;2023-10-19T08:55:25;435.60;2355.20
57030;DHT22;42920;45.306;20.448;2023-10-19T08:57:53;435.50;2355.20
57030;DHT22;42920;45.306;20.448;2023-10-19T09:00:19;435.70;2355.20
57030;DHT22;42920;45.306;20.448;2023-10-19T09:02:45;435.20;2355.20
57030;DHT22;42920;45.306;20.448;2023-10-19T09:05:11;435.60;2355.20
57030;DHT22;42920;45.306;20.448;2023-10-19T09:07:54;435.70;2355.20
57030;DHT22;42920;45.306;20.448;2023-10-19T09:10:27;460.80;2380.80
57030;DHT22;42920;45.306;20.448;2023-10-19T09:13:03;461.20;2380.80
57030;DHT22;42920;45.306;20.448;2023-10-19T09:15:31;461.50;2380.80
57030;DHT22;42920;45.306;20.448;2023-10-19T09:18:20;461.60;2380.80
57030;DHT22;42920;45.306;20.448;2023-10-19T09:20:51;486.50;2380.80
57030;DHT22;42920;45.306;20.448;2023-10-19T09:23:40;486.60;2380.80
57030;DHT22;42920;45.306;20.448;2023-10-19T09:26:07;486.80;2380.80
57030;DHT22;42920;45.306;20.448;2023-10-19T09:28:37;486.70;2380.80
57030;DHT22;42920;45.306;20.448;2023-10-19T09:31:03;486.80;2380.80
57030;DHT22;42920;45.306;20.448;2023-10-19T09:33:32;487.00;2380.80
57030;DHT22;42920;45.306;20.448;2023-10-19T09:38:26;512.30;2380.80
57030;DHT22;42920;45.306;20.448;2023-10-19T09:40:54;512.60;2380.80
57030;DHT22;42920;45.306;20.448;2023-10-19T09:43:44;512.70;2380.80
57030;DHT22;42920;45.306;20.448;2023-10-19T09:46:11;512.80;2380.80
57030;DHT22;42920;45.306;20.448;2023-10-19T09:48:45;512.90;2380.80
57030;DHT22;42920;45.306;20.448;2023-10-19T09:51:14;512.90;2380.80
57030;DHT22;42920;45.306;20.448;2023-10-19T09:53:43;512.80;2380.80
57030;DHT22;42920;45.306;20.448;2023-10-19T09:58:54;538.00;2406.40
57030;DHT22;42920;45.306;20.448;2023-10-19T10:01:20;537.60;2406.40
57030;DHT22;42920;45.306;20.448;2023-10-19T10:03:51;537.90;2406.40
57030;DHT22;42920;45.306;20.448;2023-10-19T10:08:54;538.20;2406.40
57030;DHT22;42920;45.306;20.448;2023-10-19T10:11:25;538.50;2406.40
57030;DHT22;42920;45.306;20.448;2023-10-19T10:13:56;563.30;2432.00
57030;DHT22;42920;45.306;20.448;2023-10-19T10:16:26;563.20;2432.00
57030;DHT22;42920;45.306;20.448;2023-10-19T10:18:58;563.50;2432.00
57030;DHT22;42920;45.306;20.448;2023-10-19T10:21:28;563.50;2432.00
57030;DHT22;42920;45.306;20.448;2023-10-19T10:24:02;564.00;2432.00
57030;DHT22;42920;45.306;20.448;2023-10-19T10:26:30;563.70;2432.00
57030;DHT22;42920;45.306;20.448;2023-10-19T10:29:21;563.90;2432.00
57030;DHT22;42920;45.306;20.448;2023-10-19T10:31:49;564.00;2432.00
57030;DHT22;42920;45.306;20.448;2023-10-19T10:37:04;588.80;2380.80
57030;DHT22;42920;45.306;20.448;2023-10-19T10:39:31;589.00;2380.80
57030;DHT22;42920;45.306;20.448;2023-10-19T10:42:01;589.20;2380.80
57030;DHT22;42920;45.306;20.448;2023-10-19T10:44:47;589.00;2329.60
57030;DHT22;42920;45.306;20.448;2023-10-19T10:47:21;589.20;2329.60
57030;DHT22;42920;45.306;20.448;2023-10-19T10:49:58;589.50;2278.40
57030;DHT22;42920;45.306;20.448;2023-10-19T10:52:28;589.50;2252.80
57030;DHT22;42920;45.306;20.448;2023-10-19T10:55:09;589.30;2227.20
57030;DHT22;42920;45.306;20.448;2023-10-19T10:57:37;589.70;2227.20
57030;DHT22;42920;45.306;20.448;2023-10-19T11:00:07;589.50;2227.20
57030;DHT22;42920;45.306;20.448;2023-10-19T11:03:02;589.70;2201.60
57030;DHT22;42920;45.306;20.448;2023-10-19T11:05:30;614.40;2201.60
57030;DHT22;42920;45.306;20.448;2023-10-19T11:08:11;614.40;2176.00
57030;DHT22;42920;45.306;20.448;2023-10-19T11:10:43;614.60;2150.40
57030;DHT22;42920;45.306;20.448;2023-10-19T11:13:31;614.60;2150.40
57030;DHT22;42920;45.306;20.448;2023-10-19T11:15:59;614.50;2124.80
57030;DHT22;42920;45.306;20.448;2023-10-19T11:18:36;614.50;2124.80
57030;DHT22;42920;45.306;20.448;2023-10-19T11:21:12;614.60;2124.80
57030;DHT22;42920;45.306;20.448;2023-10-19T11:23:47;589.70;2124.80
57030;DHT22;42920;45.306;20.448;2023-10-19T11:26:19;589.50;2150.40
57030;DHT22;42920;45.306;20.448;2023-10-19T11:28:45;589.70;2150.40
57030;DHT22;42920;45.306;20.448;2023-10-19T11:31:19;614.50;2099.20
57030;DHT22;42920;45.306;20.448;2023-10-19T11:33:46;589.20;2150.40
57030;DHT22;42920;45.306;20.448;2023-10-19T11:36:14;588.90;2227.20
57030;DHT22;42920;45.306;20.448;2023-10-19T11:38:41;564.10;2252.80
57030;DHT22;42920;45.306;20.448;2023-10-19T11:41:08;564.10;2252.80
57030;DHT22;42920;45.306;20.448;2023-10-19T11:43:34;563.90;2252.80
57030;DHT22;42920;45.306;20.448;2023-10-19T11:46:01;564.10;2278.40
57030;DHT22;42920;45.306;20.448;2023-10-19T11:48:30;589.10;2227.20
57030;DHT22;42920;45.306;20.448;2023-10-19T11:50:56;589.60;2150.40
57030;DHT22;42920;45.306;20.448;2023-10-19T11:53:22;589.70;2150.40
57030;DHT22;42920;45.306;20.448;2023-10-19T11:55:48;614.60;2099.20
57030;DHT22;42920;45.306;20.448;2023-10-19T11:58:14;614.70;2099.20
57030;DHT22;42920;45.306;20.448;2023-10-19T12:00:41;614.50;2099.20
57030;DHT22;42920;45.306;20.448;2023-10-19T12:03:12;589.60;2124.80
57030;DHT22;42920;45.306;20.448;2023-10-19T12:05:39;589.40;2150.40
57030;DHT22;42920;45.306;20.448;2023-10-19T12:08:05;589.20;2150.40
57030;DHT22;42920;45.306;20.448;2023-10-19T12:10:32;589.40;2176.00
57030;DHT22;42920;45.306;20.448;2023-10-19T12:13:06;589.30;2150.40
57030;DHT22;42920;45.306;20.448;2023-10-19T12:15:34;589.30;2176.00
57030;DHT22;42920;45.306;20.448;2023-10-19T12:18:00;589.50;2150.40
57030;DHT22;42920;45.306;20.448;2023-10-19T12:20:28;589.50;2176.00
57030;DHT22;42920;45.306;20.448;2023-10-19T12:22:57;589.50;2150.40
57030;DHT22;42920;45.306;20.448;2023-10-19T12:25:24;614.50;2124.80
57030;DHT22;42920;45.306;20.448;2023-10-19T12:27:57;589.50;2099.20
57030;DHT22;42920;45.306;20.448;2023-10-19T12:30:24;589.60;2124.80
57030;DHT22;42920;45.306;20.448;2023-10-19T12:32:52;589.70;2099.20
57030;DHT22;42920;45.306;20.448;2023-10-19T12:35:18;614.40;2099.20
57030;DHT22;42920;45.306;20.448;2023-10-19T12:37:50;614.50;2073.60
57030;DHT22;42920;45.306;20.448;2023-10-19T12:40:21;614.70;2099.20
57030;DHT22;42920;45.306;20.448;2023-10-19T12:42:54;614.80;2073.60
57030;DHT22;42920;45.306;20.448;2023-10-19T12:45:24;614.70;2073.60
57030;DHT22;42920;45.306;20.448;2023-10-19T12:47:51;614.70;2073.60
57030;DHT22;42920;45.306;20.448;2023-10-19T12:50:21;614.50;2073.60
57030;DHT22;42920;45.306;20.448;2023-10-19T12:52:50;614.50;2073.60
57030;DHT22;42920;45.306;20.448;2023-10-19T12:55:17;614.50;2073.60
57030;DHT22;42920;45.306;20.448;2023-10-19T12:57:43;614.50;2073.60
57030;DHT22;42920;45.306;20.448;2023-10-19T13:00:09;614.50;2099.20
57030;DHT22;42920;45.306;20.448;2023-10-19T13:02:55;614.50;2124.80
57030;DHT22;42920;45.306;20.448;2023-10-19T13:05:27;589.40;2124.80
57030;DHT22;42920;45.306;20.448;2023-10-19T13:07:54;589.10;2176.00
57030;DHT22;42920;45.306;20.448;2023-10-19T13:10:33;588.90;2176.00
57030;DHT22;42920;45.306;20.448;2023-10-19T13:13:04;588.80;2201.60
57030;DHT22;42920;45.306;20.448;2023-10-19T13:15:36;564.10;2227.20
57030;DHT22;42920;45.306;20.448;2023-10-19T13:18:02;564.10;2252.80
57030;DHT22;42920;45.306;20.448;2023-10-19T13:20:29;564.10;2252.80
57030;DHT22;42920;45.306;20.448;2023-10-19T13:23:05;564.10;2252.80
57030;DHT22;42920;45.306;20.448;2023-10-19T13:25:38;564.10;2252.80
57030;DHT22;42920;45.306;20.448;2023-10-19T13:28:11;564.00;2278.40
57030;DHT22;42920;45.306;20.448;2023-10-19T13:30:46;564.00;2304.00
57030;DHT22;42920;45.306;20.448;2023-10-19T13:33:13;564.00;2304.00
57030;DHT22;42920;45.306;20.448;2023-10-19T13:35:41;564.00;2278.40
57030;DHT22;42920;45.306;20.448;2023-10-19T13:38:10;564.00;2278.40
57030;DHT22;42920;45.306;20.448;2023-10-19T13:40:37;564.10;2278.40
57030;DHT22;42920;45.306;20.448;2023-10-19T13:43:05;588.80;2252.80
57030;DHT22;42920;45.306;20.448;2023-10-19T13:45:33;589.00;2252.80
57030;DHT22;42920;45.306;20.448;2023-10-19T13:48:00;589.00;2252.80
57030;DHT22;42920;45.306;20.448;2023-10-19T13:50:26;588.90;2227.20
57030;DHT22;42920;45.306;20.448;2023-10-19T13:52:55;588.80;2252.80
57030;DHT22;42920;45.306;20.448;2023-10-19T13:55:23;564.00;2252.80
57030;DHT22;42920;45.306;20.448;2023-10-19T13:57:49;563.90;2278.40
57030;DHT22;42920;45.306;20.448;2023-10-19T14:07:52;563.70;2304.00
57030;DHT22;42920;45.306;20.448;2023-10-19T14:10:18;563.60;2329.60
57030;DHT22;42920;45.306;20.448;2023-10-19T14:12:48;563.50;2329.60
57030;DHT22;42920;45.306;20.448;2023-10-19T14:15:16;563.60;2355.20
57030;DHT22;42920;45.306;20.448;2023-10-19T14:17:44;563.60;2355.20
57030;DHT22;42920;45.306;20.448;2023-10-19T14:20:12;563.60;2355.20
57030;DHT22;42920;45.306;20.448;2023-10-19T14:22:46;563.60;2304.00
57030;DHT22;42920;45.306;20.448;2023-10-19T14:25:13;563.70;2304.00
57030;DHT22;42920;45.306;20.448;2023-10-19T14:27:43;563.70;2329.60
57030;DHT22;42920;45.306;20.448;2023-10-19T14:30:10;563.70;2329.60
57030;DHT22;42920;45.306;20.448;2023-10-19T14:32:41;563.70;2304.00
57030;DHT22;42920;45.306;20.448;2023-10-19T14:35:11;563.60;2329.60
57030;DHT22;42920;45.306;20.448;2023-10-19T14:37:42;563.60;2329.60
57030;DHT22;42920;45.306;20.448;2023-10-19T14:40:12;563.60;2329.60
57030;DHT22;42920;45.306;20.448;2023-10-19T14:42:40;563.50;2329.60
57030;DHT22;42920;45.306;20.448;2023-10-19T14:45:11;563.50;2355.20
57030;DHT22;42920;45.306;20.448;2023-10-19T14:47:40;563.40;2355.20
57030;DHT22;42920;45.306;20.448;2023-10-19T14:50:16;563.30;2355.20
57030;DHT22;42920;45.306;20.448;2023-10-19T14:52:45;563.20;2355.20
57030;DHT22;42920;45.306;20.448;2023-10-19T14:55:12;563.20;2355.20
57030;DHT22;42920;45.306;20.448;2023-10-19T14:57:41;538.50;2355.20
57030;DHT22;42920;45.306;20.448;2023-10-19T15:00:08;538.50;2355.20
57030;DHT22;42920;45.306;20.448;2023-10-19T15:02:45;538.40;2380.80
57030;DHT22;42920;45.306;20.448;2023-10-19T15:05:14;538.40;2380.80
57030;DHT22;42920;45.306;20.448;2023-10-19T15:07:46;538.30;2380.80
57030;DHT22;42920;45.306;20.448;2023-10-19T15:10:12;538.30;2406.40